sensor_id;sensor_type;location;lat;lon;timestamp;P1;durP1;ratioP1;P2;durP2;ratioP2
44139;SDS011;29803;51.048;4.686;2024-02-28T00:02:14;35.40;;;16.70;;
44139;SDS011;29803;51.048;4.686;2024-02-28T00:04:44;38.72;;;17.17;;
44139;SDS011;29803;51.048;4.686;2024-02-28T00:07:15;34.13;;;16.52;;
44139;SDS011;29803;51.048;4.686;2024-02-28T00:09:45;34.03;;;15.35;;
44139;SDS011;29803;51.048;4.686;2024-02-28T00:12:16;38.33;;;19.10;;
44139;SDS011;29803;51.048;4.686;2024-02-28T00:14:46;54.03;;;24.73;;
44139;SDS011;29803;51.048;4.686;2024-02-28T00:17:17;49.53;;;21.00;;
44139;SDS011;29803;51.048;4.686;2024-02-28T00:19:47;46.72;;;21.80;;
44139;SDS011;29803;51.048;4.686;2024-02-28T00:22:18;48.58;;;22.30;;
44139;SDS011;29803;51.048;4.686;2024-02-28T00:24:49;50.20;;;21.85;;
44139;SDS011;29803;51.048;4.686;2024-02-28T00:27:19;50.10;;;22.75;;
44139;SDS011;29803;51.048;4.686;2024-02-28T00:29:50;48.65;;;21.48;;
44139;SDS011;29803;51.048;4.686;2024-02-28T00:32:21;46.05;;;20.55;;
44139;SDS011;29803;51.048;4.686;2024-02-28T00:34:51;54.90;;;22.00;;
44139;SDS011;29803;51.048;4.686;2024-02-28T00:37:22;43.28;;;18.67;;
44139;SDS011;29803;51.048;4.686;2024-02-28T00:39:52;40.78;;;18.33;;
44139;SDS011;29803;51.048;4.686;2024-02-28T00:42:23;38.97;;;17.67;;
44139;SDS011;29803;51.048;4.686;2024-02-28T00:44:54;36.97;;;17.05;;
44139;SDS011;29803;51.048;4.686;2024-02-28T00:47:24;40.10;;;18.77;;
44139;SDS011;29803;51.048;4.686;2024-02-28T00:49:55;37.08;;;17.05;;
44139;SDS011;29803;51.048;4.686;2024-02-28T00:52:26;34.97;;;15.40;;
44139;SDS011;29803;51.048;4.686;2024-02-28T00:54:56;38.92;;;18.92;;
44139;SDS011;29803;51.048;4.686;2024-02-28T00:57:27;46.67;;;19.77;;
44139;SDS011;29803;51.048;4.686;2024-02-28T00:59:57;38.45;;;18.42;;
44139;SDS011;29803;51.048;4.686;2024-02-28T01:02:28;41.53;;;18.50;;
44139;SDS011;29803;51.048;4.686;2024-02-28T01:04:58;49.75;;;21.48;;
44139;SDS011;29803;51.048;4.686;2024-02-28T01:07:28;41.92;;;18.60;;
44139;SDS011;29803;51.048;4.686;2024-02-28T01:09:59;43.42;;;20.92;;
44139;SDS011;29803;51.048;4.686;2024-02-28T01:12:30;41.20;;;20.90;;
44139;SDS011;29803;51.048;4.686;2024-02-28T01:15:00;38.92;;;17.00;;
44139;SDS011;29803;51.048;4.686;2024-02-28T01:17:31;37.40;;;19.25;;
44139;SDS011;29803;51.048;4.686;2024-02-28T01:20:01;39.22;;;19.77;;
44139;SDS011;29803;51.048;4.686;2024-02-28T01:22:31;39.78;;;18.42;;
44139;SDS011;29803;51.048;4.686;2024-02-28T01:25:02;44.92;;;20.65;;
44139;SDS011;29803;51.048;4.686;2024-02-28T01:27:33;52.38;;;22.45;;
44139;SDS011;29803;51.048;4.686;2024-02-28T01:30:03;46.90;;;21.48;;
44139;SDS011;29803;51.048;4.686;2024-02-28T01:32:34;51.40;;;22.35;;
44139;SDS011;29803;51.048;4.686;2024-02-28T01:35:05;51.55;;;22.38;;
44139;SDS011;29803;51.048;4.686;2024-02-28T01:37:35;48.15;;;21.75;;
44139;SDS011;29803;51.048;4.686;2024-02-28T01:40:06;50.35;;;21.48;;
44139;SDS011;29803;51.048;4.686;2024-02-28T01:42:37;43.65;;;20.23;;
44139;SDS011;29803;51.048;4.686;2024-02-28T01:45:09;45.45;;;20.92;;
44139;SDS011;29803;51.048;4.686;2024-02-28T01:47:43;50.83;;;19.33;;
44139;SDS011;29803;51.048;4.686;2024-02-28T01:50:13;50.42;;;21.08;;
44139;SDS011;29803;51.048;4.686;2024-02-28T01:52:44;42.05;;;19.10;;
44139;SDS011;29803;51.048;4.686;2024-02-28T01:55:14;46.25;;;20.80;;
44139;SDS011;29803;51.048;4.686;2024-02-28T01:57:45;46.92;;;21.77;;
44139;SDS011;29803;51.048;4.686;2024-02-28T02:00:16;47.17;;;21.73;;
44139;SDS011;29803;51.048;4.686;2024-02-28T02:02:47;48.88;;;21.48;;
44139;SDS011;29803;51.048;4.686;2024-02-28T02:05:18;41.30;;;19.27;;
44139;SDS011;29803;51.048;4.686;2024-02-28T02:07:50;46.42;;;20.13;;
44139;SDS011;29803;51.048;4.686;2024-02-28T02:10:21;44.20;;;20.38;;
44139;SDS011;29803;51.048;4.686;2024-02-28T02:12:51;50.60;;;20.92;;
44139;SDS011;29803;51.048;4.686;2024-02-28T02:15:22;48.92;;;20.85;;
44139;SDS011;29803;51.048;4.686;2024-02-28T02:17:52;43.03;;;18.55;;
44139;SDS011;29803;51.048;4.686;2024-02-28T02:20:23;50.45;;;19.90;;
44139;SDS011;29803;51.048;4.686;2024-02-28T02:22:56;43.47;;;19.42;;
44139;SDS011;29803;51.048;4.686;2024-02-28T02:25:27;44.13;;;19.45;;
44139;SDS011;29803;51.048;4.686;2024-02-28T02:27:57;41.55;;;18.08;;
44139;SDS011;29803;51.048;4.686;2024-02-28T02:30:28;43.50;;;17.60;;
44139;SDS011;29803;51.048;4.686;2024-02-28T02:32:58;40.67;;;17.23;;
44139;SDS011;29803;51.048;4.686;2024-02-28T02:35:29;36.13;;;17.17;;
44139;SDS011;29803;51.048;4.686;2024-02-28T02:37:59;41.25;;;18.77;;
44139;SDS011;29803;51.048;4.686;2024-02-28T02:40:30;44.00;;;19.27;;
44139;SDS011;29803;51.048;4.686;2024-02-28T02:43:00;39.65;;;18.38;;
44139;SDS011;29803;51.048;4.686;2024-02-28T02:45:31;43.35;;;20.15;;
44139;SDS011;29803;51.048;4.686;2024-02-28T02:48:01;44.50;;;19.70;;
44139;SDS011;29803;51.048;4.686;2024-02-28T02:50:32;50.40;;;21.17;;
44139;SDS011;29803;51.048;4.686;2024-02-28T02:53:03;43.42;;;20.15;;
44139;SDS011;29803;51.048;4.686;2024-02-28T02:55:34;45.08;;;21.38;;
44139;SDS011;29803;51.048;4.686;2024-02-28T02:58:05;49.70;;;19.38;;
44139;SDS011;29803;51.048;4.686;2024-02-28T03:00:35;41.40;;;19.13;;
44139;SDS011;29803;51.048;4.686;2024-02-28T03:03:06;45.80;;;21.98;;
44139;SDS011;29803;51.048;4.686;2024-02-28T03:05:36;48.00;;;20.55;;
44139;SDS011;29803;51.048;4.686;2024-02-28T03:08:07;42.53;;;18.85;;
44139;SDS011;29803;51.048;4.686;2024-02-28T03:10:38;44.35;;;20.48;;
44139;SDS011;29803;51.048;4.686;2024-02-28T03:13:09;47.22;;;20.20;;
44139;SDS011;29803;51.048;4.686;2024-02-28T03:15:40;55.22;;;20.17;;
44139;SDS011;29803;51.048;4.686;2024-02-28T03:18:11;51.78;;;20.23;;
44139;SDS011;29803;51.048;4.686;2024-02-28T03:20:42;45.05;;;20.00;;
44139;SDS011;29803;51.048;4.686;2024-02-28T03:23:13;50.63;;;21.13;;
44139;SDS011;29803;51.048;4.686;2024-02-28T03:25:43;56.22;;;20.70;;
44139;SDS011;29803;51.048;4.686;2024-02-28T03:28:14;53.92;;;21.58;;
44139;SDS011;29803;51.048;4.686;2024-02-28T03:30:49;54.45;;;22.27;;
44139;SDS011;29803;51.048;4.686;2024-02-28T03:33:20;58.83;;;23.23;;
44139;SDS011;29803;51.048;4.686;2024-02-28T03:35:52;50.20;;;22.02;;
44139;SDS011;29803;51.048;4.686;2024-02-28T03:38:23;61.67;;;23.38;;
44139;SDS011;29803;51.048;4.686;2024-02-28T03:40:53;57.50;;;24.45;;
44139;SDS011;29803;51.048;4.686;2024-02-28T03:43:24;53.72;;;25.42;;
44139;SDS011;29803;51.048;4.686;2024-02-28T03:45:54;68.72;;;25.80;;
44139;SDS011;29803;51.048;4.686;2024-02-28T03:48:25;62.45;;;24.42;;
44139;SDS011;29803;51.048;4.686;2024-02-28T03:50:55;54.45;;;21.23;;
44139;SDS011;29803;51.048;4.686;2024-02-28T03:53:26;54.88;;;23.60;;
44139;SDS011;29803;51.048;4.686;2024-02-28T03:55:56;60.60;;;24.95;;
44139;SDS011;29803;51.048;4.686;2024-02-28T03:58:27;68.85;;;26.23;;
44139;SDS011;29803;51.048;4.686;2024-02-28T04:00:58;77.95;;;30.05;;
44139;SDS011;29803;51.048;4.686;2024-02-28T04:03:29;71.75;;;26.90;;
44139;SDS011;29803;51.048;4.686;2024-02-28T04:05:59;69.90;;;27.58;;
44139;SDS011;29803;51.048;4.686;2024-02-28T04:08:30;78.00;;;28.42;;
44139;SDS011;29803;51.048;4.686;2024-02-28T04:11:00;65.28;;;25.90;;
44139;SDS011;29803;51.048;4.686;2024-02-28T04:13:31;73.35;;;27.35;;
44139;SDS011;29803;51.048;4.686;2024-02-28T04:16:02;79.72;;;29.50;;
44139;SDS011;29803;51.048;4.686;2024-02-28T04:18:33;96.75;;;29.23;;
44139;SDS011;29803;51.048;4.686;2024-02-28T04:21:04;76.75;;;27.25;;
44139;SDS011;29803;51.048;4.686;2024-02-28T04:23:34;81.65;;;30.23;;
44139;SDS011;29803;51.048;4.686;2024-02-28T04:26:05;89.43;;;29.95;;
44139;SDS011;29803;51.048;4.686;2024-02-28T04:28:35;77.78;;;29.52;;
44139;SDS011;29803;51.048;4.686;2024-02-28T04:31:05;86.68;;;29.90;;
44139;SDS011;29803;51.048;4.686;2024-02-28T04:33:37;92.53;;;31.25;;
44139;SDS011;29803;51.048;4.686;2024-02-28T04:36:08;74.72;;;29.02;;
44139;SDS011;29803;51.048;4.686;2024-02-28T04:38:38;79.78;;;29.40;;
44139;SDS011;29803;51.048;4.686;2024-02-28T04:41:09;78.68;;;27.67;;
44139;SDS011;29803;51.048;4.686;2024-02-28T04:43:39;67.60;;;26.30;;
44139;SDS011;29803;51.048;4.686;2024-02-28T04:46:10;80.68;;;29.98;;
44139;SDS011;29803;51.048;4.686;2024-02-28T04:48:41;73.70;;;27.30;;
44139;SDS011;29803;51.048;4.686;2024-02-28T04:51:11;79.82;;;28.95;;
44139;SDS011;29803;51.048;4.686;2024-02-28T04:53:46;75.80;;;27.52;;
44139;SDS011;29803;51.048;4.686;2024-02-28T04:56:17;86.07;;;28.10;;
44139;SDS011;29803;51.048;4.686;2024-02-28T04:58:47;83.72;;;29.80;;
44139;SDS011;29803;51.048;4.686;2024-02-28T05:01:18;83.82;;;30.10;;
44139;SDS011;29803;51.048;4.686;2024-02-28T05:03:49;82.60;;;29.40;;
44139;SDS011;29803;51.048;4.686;2024-02-28T05:06:19;91.10;;;29.27;;
44139;SDS011;29803;51.048;4.686;2024-02-28T05:08:50;78.63;;;29.13;;
44139;SDS011;29803;51.048;4.686;2024-02-28T05:11:21;75.55;;;28.63;;
44139;SDS011;29803;51.048;4.686;2024-02-28T05:13:52;101.05;;;34.63;;
44139;SDS011;29803;51.048;4.686;2024-02-28T05:16:24;121.45;;;38.40;;
44139;SDS011;29803;51.048;4.686;2024-02-28T05:18:54;107.97;;;36.22;;
44139;SDS011;29803;51.048;4.686;2024-02-28T05:21:26;115.95;;;37.80;;
44139;SDS011;29803;51.048;4.686;2024-02-28T05:23:56;124.07;;;38.42;;
44139;SDS011;29803;51.048;4.686;2024-02-28T05:26:27;120.05;;;37.15;;
44139;SDS011;29803;51.048;4.686;2024-02-28T05:28:57;110.43;;;35.05;;
44139;SDS011;29803;51.048;4.686;2024-02-28T05:31:28;97.65;;;34.92;;
44139;SDS011;29803;51.048;4.686;2024-02-28T05:34:00;105.93;;;33.58;;
44139;SDS011;29803;51.048;4.686;2024-02-28T05:36:31;92.85;;;32.38;;
44139;SDS011;29803;51.048;4.686;2024-02-28T05:39:04;108.10;;;34.40;;
44139;SDS011;29803;51.048;4.686;2024-02-28T05:41:36;105.40;;;30.75;;
44139;SDS011;29803;51.048;4.686;2024-02-28T05:44:07;93.15;;;31.08;;
44139;SDS011;29803;51.048;4.686;2024-02-28T05:46:39;85.07;;;31.05;;
44139;SDS011;29803;51.048;4.686;2024-02-28T05:49:10;95.28;;;31.52;;
44139;SDS011;29803;51.048;4.686;2024-02-28T05:51:41;82.53;;;30.35;;
44139;SDS011;29803;51.048;4.686;2024-02-28T05:54:12;90.13;;;30.35;;
44139;SDS011;29803;51.048;4.686;2024-02-28T05:56:42;89.22;;;32.58;;
44139;SDS011;29803;51.048;4.686;2024-02-28T05:59:13;86.45;;;29.42;;
44139;SDS011;29803;51.048;4.686;2024-02-28T06:01:44;86.35;;;30.83;;
44139;SDS011;29803;51.048;4.686;2024-02-28T06:04:14;88.68;;;30.25;;
44139;SDS011;29803;51.048;4.686;2024-02-28T06:06:46;92.72;;;32.13;;
44139;SDS011;29803;51.048;4.686;2024-02-28T06:09:20;94.70;;;32.35;;
44139;SDS011;29803;51.048;4.686;2024-02-28T06:11:51;103.75;;;31.63;;
44139;SDS011;29803;51.048;4.686;2024-02-28T06:14:25;84.85;;;31.25;;
44139;SDS011;29803;51.048;4.686;2024-02-28T06:16:58;95.75;;;31.92;;
44139;SDS011;29803;51.048;4.686;2024-02-28T06:19:31;101.50;;;32.83;;
44139;SDS011;29803;51.048;4.686;2024-02-28T06:22:02;93.82;;;32.08;;
44139;SDS011;29803;51.048;4.686;2024-02-28T06:24:34;91.85;;;31.08;;
44139;SDS011;29803;51.048;4.686;2024-02-28T06:27:05;91.38;;;31.15;;
44139;SDS011;29803;51.048;4.686;2024-02-28T06:29:35;91.70;;;30.17;;
44139;SDS011;29803;51.048;4.686;2024-02-28T06:32:06;82.55;;;28.88;;
44139;SDS011;29803;51.048;4.686;2024-02-28T06:34:39;86.88;;;29.92;;
44139;SDS011;29803;51.048;4.686;2024-02-28T06:37:12;99.88;;;30.38;;
44139;SDS011;29803;51.048;4.686;2024-02-28T06:39:43;96.07;;;32.95;;
44139;SDS011;29803;51.048;4.686;2024-02-28T06:42:13;90.13;;;31.30;;
44139;SDS011;29803;51.048;4.686;2024-02-28T06:44:44;89.50;;;29.73;;
44139;SDS011;29803;51.048;4.686;2024-02-28T06:47:15;93.05;;;33.78;;
44139;SDS011;29803;51.048;4.686;2024-02-28T06:49:47;85.93;;;31.65;;
44139;SDS011;29803;51.048;4.686;2024-02-28T06:52:17;103.00;;;32.88;;
44139;SDS011;29803;51.048;4.686;2024-02-28T06:54:48;97.53;;;32.42;;
44139;SDS011;29803;51.048;4.686;2024-02-28T06:57:18;93.63;;;32.45;;
44139;SDS011;29803;51.048;4.686;2024-02-28T06:59:50;85.90;;;30.98;;
44139;SDS011;29803;51.048;4.686;2024-02-28T07:02:22;89.93;;;31.00;;
44139;SDS011;29803;51.048;4.686;2024-02-28T07:04:56;85.03;;;31.50;;
44139;SDS011;29803;51.048;4.686;2024-02-28T07:07:28;82.57;;;32.75;;
44139;SDS011;29803;51.048;4.686;2024-02-28T07:10:02;78.38;;;29.77;;
44139;SDS011;29803;51.048;4.686;2024-02-28T07:12:34;80.90;;;28.52;;
44139;SDS011;29803;51.048;4.686;2024-02-28T07:15:06;76.20;;;25.80;;
44139;SDS011;29803;51.048;4.686;2024-02-28T07:17:37;69.55;;;25.80;;
44139;SDS011;29803;51.048;4.686;2024-02-28T07:20:08;63.55;;;24.63;;
44139;SDS011;29803;51.048;4.686;2024-02-28T07:22:39;71.57;;;25.55;;
44139;SDS011;29803;51.048;4.686;2024-02-28T07:25:13;66.72;;;24.73;;
44139;SDS011;29803;51.048;4.686;2024-02-28T07:27:44;59.00;;;24.30;;
44139;SDS011;29803;51.048;4.686;2024-02-28T07:30:14;71.38;;;25.88;;
44139;SDS011;29803;51.048;4.686;2024-02-28T07:32:45;68.38;;;24.38;;
44139;SDS011;29803;51.048;4.686;2024-02-28T07:35:15;64.55;;;25.58;;
44139;SDS011;29803;51.048;4.686;2024-02-28T07:37:46;67.20;;;26.92;;
44139;SDS011;29803;51.048;4.686;2024-02-28T07:40:17;75.15;;;27.70;;
44139;SDS011;29803;51.048;4.686;2024-02-28T07:42:48;70.18;;;27.55;;
44139;SDS011;29803;51.048;4.686;2024-02-28T07:45:18;77.63;;;28.85;;
44139;SDS011;29803;51.048;4.686;2024-02-28T07:47:49;71.78;;;29.77;;
44139;SDS011;29803;51.048;4.686;2024-02-28T07:50:19;75.03;;;28.05;;
44139;SDS011;29803;51.048;4.686;2024-02-28T07:52:50;82.07;;;28.70;;
44139;SDS011;29803;51.048;4.686;2024-02-28T07:55:23;79.82;;;29.15;;
44139;SDS011;29803;51.048;4.686;2024-02-28T07:57:54;85.35;;;30.77;;
44139;SDS011;29803;51.048;4.686;2024-02-28T08:00:25;94.30;;;29.52;;
44139;SDS011;29803;51.048;4.686;2024-02-28T08:02:55;84.15;;;30.10;;
44139;SDS011;29803;51.048;4.686;2024-02-28T08:05:26;79.43;;;31.15;;
44139;SDS011;29803;51.048;4.686;2024-02-28T08:07:56;92.55;;;31.45;;
44139;SDS011;29803;51.048;4.686;2024-02-28T08:10:27;95.68;;;33.40;;
44139;SDS011;29803;51.048;4.686;2024-02-28T08:12:57;85.80;;;31.38;;
44139;SDS011;29803;51.048;4.686;2024-02-28T08:15:28;97.25;;;33.70;;
44139;SDS011;29803;51.048;4.686;2024-02-28T08:17:58;91.43;;;29.27;;
44139;SDS011;29803;51.048;4.686;2024-02-28T08:20:29;92.00;;;32.42;;
44139;SDS011;29803;51.048;4.686;2024-02-28T08:22:59;86.30;;;32.13;;
44139;SDS011;29803;51.048;4.686;2024-02-28T08:25:30;96.35;;;32.83;;
44139;SDS011;29803;51.048;4.686;2024-02-28T08:28:01;102.95;;;34.40;;
44139;SDS011;29803;51.048;4.686;2024-02-28T08:30:33;89.00;;;32.80;;
44139;SDS011;29803;51.048;4.686;2024-02-28T08:33:05;94.68;;;33.95;;
44139;SDS011;29803;51.048;4.686;2024-02-28T08:35:39;87.63;;;32.45;;
44139;SDS011;29803;51.048;4.686;2024-02-28T08:38:09;91.40;;;31.98;;
44139;SDS011;29803;51.048;4.686;2024-02-28T08:40:40;90.28;;;32.35;;
44139;SDS011;29803;51.048;4.686;2024-02-28T08:43:11;93.18;;;31.88;;
44139;SDS011;29803;51.048;4.686;2024-02-28T08:45:44;103.47;;;32.63;;
44139;SDS011;29803;51.048;4.686;2024-02-28T08:48:16;86.97;;;31.13;;
44139;SDS011;29803;51.048;4.686;2024-02-28T08:50:50;91.57;;;31.05;;
44139;SDS011;29803;51.048;4.686;2024-02-28T08:53:21;92.30;;;30.55;;
44139;SDS011;29803;51.048;4.686;2024-02-28T08:55:56;79.05;;;28.63;;
44139;SDS011;29803;51.048;4.686;2024-02-28T08:58:27;84.28;;;29.95;;
44139;SDS011;29803;51.048;4.686;2024-02-28T09:01:00;77.72;;;27.98;;
44139;SDS011;29803;51.048;4.686;2024-02-28T09:03:34;85.70;;;30.35;;
44139;SDS011;29803;51.048;4.686;2024-02-28T09:06:07;82.43;;;28.98;;
44139;SDS011;29803;51.048;4.686;2024-02-28T09:08:39;68.28;;;27.63;;
44139;SDS011;29803;51.048;4.686;2024-02-28T09:11:10;91.05;;;27.98;;
44139;SDS011;29803;51.048;4.686;2024-02-28T09:13:43;84.07;;;27.27;;
44139;SDS011;29803;51.048;4.686;2024-02-28T09:16:16;80.15;;;26.15;;
44139;SDS011;29803;51.048;4.686;2024-02-28T09:18:48;72.28;;;27.48;;
44139;SDS011;29803;51.048;4.686;2024-02-28T09:21:22;91.05;;;26.45;;
44139;SDS011;29803;51.048;4.686;2024-02-28T09:23:53;70.85;;;25.33;;
44139;SDS011;29803;51.048;4.686;2024-02-28T09:26:26;71.13;;;25.77;;
44139;SDS011;29803;51.048;4.686;2024-02-28T09:28:57;75.22;;;25.48;;
44139;SDS011;29803;51.048;4.686;2024-02-28T09:31:39;72.63;;;27.20;;
44139;SDS011;29803;51.048;4.686;2024-02-28T09:34:10;68.72;;;24.88;;
44139;SDS011;29803;51.048;4.686;2024-02-28T09:36:42;65.47;;;23.85;;
44139;SDS011;29803;51.048;4.686;2024-02-28T09:39:15;78.77;;;23.97;;
44139;SDS011;29803;51.048;4.686;2024-02-28T09:41:47;68.43;;;24.88;;
44139;SDS011;29803;51.048;4.686;2024-02-28T09:44:19;69.05;;;23.38;;
44139;SDS011;29803;51.048;4.686;2024-02-28T09:46:51;66.38;;;24.33;;
44139;SDS011;29803;51.048;4.686;2024-02-28T09:49:21;65.93;;;23.38;;
44139;SDS011;29803;51.048;4.686;2024-02-28T09:51:54;68.65;;;24.10;;
44139;SDS011;29803;51.048;4.686;2024-02-28T09:54:27;64.60;;;23.27;;
44139;SDS011;29803;51.048;4.686;2024-02-28T09:56:57;66.95;;;25.00;;
44139;SDS011;29803;51.048;4.686;2024-02-28T09:59:28;78.97;;;22.27;;
44139;SDS011;29803;51.048;4.686;2024-02-28T10:01:59;57.70;;;21.80;;
44139;SDS011;29803;51.048;4.686;2024-02-28T10:04:31;71.75;;;21.95;;
44139;SDS011;29803;51.048;4.686;2024-02-28T10:07:10;76.22;;;23.67;;
44139;SDS011;29803;51.048;4.686;2024-02-28T10:09:43;64.68;;;22.45;;
44139;SDS011;29803;51.048;4.686;2024-02-28T10:12:14;70.00;;;22.15;;
44139;SDS011;29803;51.048;4.686;2024-02-28T10:14:44;59.95;;;21.20;;
44139;SDS011;29803;51.048;4.686;2024-02-28T10:17:15;66.10;;;22.50;;
44139;SDS011;29803;51.048;4.686;2024-02-28T10:19:45;64.47;;;22.02;;
44139;SDS011;29803;51.048;4.686;2024-02-28T10:22:17;59.75;;;20.75;;
44139;SDS011;29803;51.048;4.686;2024-02-28T10:24:47;60.78;;;20.92;;
44139;SDS011;29803;51.048;4.686;2024-02-28T10:27:18;63.72;;;21.90;;
44139;SDS011;29803;51.048;4.686;2024-02-28T10:29:49;61.22;;;22.17;;
44139;SDS011;29803;51.048;4.686;2024-02-28T10:32:20;62.47;;;22.08;;
44139;SDS011;29803;51.048;4.686;2024-02-28T10:34:50;59.67;;;22.20;;
44139;SDS011;29803;51.048;4.686;2024-02-28T10:37:21;61.33;;;21.20;;
44139;SDS011;29803;51.048;4.686;2024-02-28T10:39:52;71.18;;;21.35;;
44139;SDS011;29803;51.048;4.686;2024-02-28T10:42:25;60.90;;;21.83;;
44139;SDS011;29803;51.048;4.686;2024-02-28T10:44:58;65.15;;;20.55;;
44139;SDS011;29803;51.048;4.686;2024-02-28T10:47:29;59.90;;;21.05;;
44139;SDS011;29803;51.048;4.686;2024-02-28T10:50:00;62.67;;;19.48;;
44139;SDS011;29803;51.048;4.686;2024-02-28T10:52:32;59.40;;;20.58;;
44139;SDS011;29803;51.048;4.686;2024-02-28T10:55:05;55.45;;;20.15;;
44139;SDS011;29803;51.048;4.686;2024-02-28T10:57:38;53.50;;;18.10;;
44139;SDS011;29803;51.048;4.686;2024-02-28T11:00:11;56.38;;;19.92;;
44139;SDS011;29803;51.048;4.686;2024-02-28T11:02:43;48.72;;;18.13;;
44139;SDS011;29803;51.048;4.686;2024-02-28T11:05:14;52.08;;;20.23;;
44139;SDS011;29803;51.048;4.686;2024-02-28T11:07:45;56.42;;;19.88;;
44139;SDS011;29803;51.048;4.686;2024-02-28T11:10:15;56.60;;;19.88;;
44139;SDS011;29803;51.048;4.686;2024-02-28T11:12:54;47.67;;;18.42;;
44139;SDS011;29803;51.048;4.686;2024-02-28T11:15:24;49.10;;;17.75;;
44139;SDS011;29803;51.048;4.686;2024-02-28T11:18:06;47.25;;;18.35;;
44139;SDS011;29803;51.048;4.686;2024-02-28T11:20:39;46.13;;;15.23;;
44139;SDS011;29803;51.048;4.686;2024-02-28T11:23:09;42.47;;;15.48;;
44139;SDS011;29803;51.048;4.686;2024-02-28T11:25:40;46.08;;;14.88;;
44139;SDS011;29803;51.048;4.686;2024-02-28T11:28:11;41.17;;;14.85;;
44139;SDS011;29803;51.048;4.686;2024-02-28T11:30:42;34.95;;;14.00;;
44139;SDS011;29803;51.048;4.686;2024-02-28T11:33:12;35.58;;;13.52;;
44139;SDS011;29803;51.048;4.686;2024-02-28T11:35:43;33.78;;;12.82;;
44139;SDS011;29803;51.048;4.686;2024-02-28T11:38:13;33.25;;;13.25;;
44139;SDS011;29803;51.048;4.686;2024-02-28T11:40:48;35.95;;;14.05;;
44139;SDS011;29803;51.048;4.686;2024-02-28T11:43:20;36.45;;;13.65;;
44139;SDS011;29803;51.048;4.686;2024-02-28T11:45:50;36.10;;;13.02;;
44139;SDS011;29803;51.048;4.686;2024-02-28T11:48:21;39.75;;;13.10;;
44139;SDS011;29803;51.048;4.686;2024-02-28T11:50:51;31.98;;;12.35;;
44139;SDS011;29803;51.048;4.686;2024-02-28T11:53:24;39.75;;;13.02;;
44139;SDS011;29803;51.048;4.686;2024-02-28T11:55:56;36.40;;;14.18;;
44139;SDS011;29803;51.048;4.686;2024-02-28T11:58:27;33.30;;;12.45;;
44139;SDS011;29803;51.048;4.686;2024-02-28T12:00:57;32.58;;;12.07;;
44139;SDS011;29803;51.048;4.686;2024-02-28T12:03:28;39.67;;;13.77;;
44139;SDS011;29803;51.048;4.686;2024-02-28T12:05:58;26.90;;;11.48;;
44139;SDS011;29803;51.048;4.686;2024-02-28T12:08:29;26.33;;;11.57;;
44139;SDS011;29803;51.048;4.686;2024-02-28T12:11:06;27.02;;;10.43;;
44139;SDS011;29803;51.048;4.686;2024-02-28T12:13:38;26.20;;;10.90;;
44139;SDS011;29803;51.048;4.686;2024-02-28T12:16:08;26.15;;;10.90;;
44139;SDS011;29803;51.048;4.686;2024-02-28T12:18:40;30.25;;;11.75;;
44139;SDS011;29803;51.048;4.686;2024-02-28T12:21:10;27.73;;;12.27;;
44139;SDS011;29803;51.048;4.686;2024-02-28T12:23:41;27.90;;;11.35;;
44139;SDS011;29803;51.048;4.686;2024-02-28T12:26:12;24.73;;;11.80;;
44139;SDS011;29803;51.048;4.686;2024-02-28T12:28:42;28.27;;;11.07;;
44139;SDS011;29803;51.048;4.686;2024-02-28T12:31:13;28.80;;;11.57;;
44139;SDS011;29803;51.048;4.686;2024-02-28T12:33:43;26.77;;;11.52;;
44139;SDS011;29803;51.048;4.686;2024-02-28T12:36:14;30.83;;;11.48;;
44139;SDS011;29803;51.048;4.686;2024-02-28T12:38:44;33.97;;;13.20;;
44139;SDS011;29803;51.048;4.686;2024-02-28T12:41:15;27.02;;;12.27;;
44139;SDS011;29803;51.048;4.686;2024-02-28T12:43:46;29.17;;;11.52;;
44139;SDS011;29803;51.048;4.686;2024-02-28T12:46:16;26.85;;;11.15;;
44139;SDS011;29803;51.048;4.686;2024-02-28T12:48:47;30.08;;;11.73;;
44139;SDS011;29803;51.048;4.686;2024-02-28T12:51:36;27.67;;;11.95;;
44139;SDS011;29803;51.048;4.686;2024-02-28T12:54:15;28.63;;;11.77;;
44139;SDS011;29803;51.048;4.686;2024-02-28T12:56:46;29.85;;;11.65;;
44139;SDS011;29803;51.048;4.686;2024-02-28T12:59:16;26.33;;;11.98;;
44139;SDS011;29803;51.048;4.686;2024-02-28T13:01:47;32.38;;;11.68;;
44139;SDS011;29803;51.048;4.686;2024-02-28T13:04:18;26.17;;;11.75;;
44139;SDS011;29803;51.048;4.686;2024-02-28T13:06:48;25.33;;;11.52;;
44139;SDS011;29803;51.048;4.686;2024-02-28T13:09:19;29.40;;;13.25;;
44139;SDS011;29803;51.048;4.686;2024-02-28T13:11:52;23.80;;;12.70;;
44139;SDS011;29803;51.048;4.686;2024-02-28T13:14:23;26.00;;;11.15;;
44139;SDS011;29803;51.048;4.686;2024-02-28T13:16:53;33.47;;;12.93;;
44139;SDS011;29803;51.048;4.686;2024-02-28T13:19:24;30.25;;;11.20;;
44139;SDS011;29803;51.048;4.686;2024-02-28T13:21:55;22.42;;;10.90;;
44139;SDS011;29803;51.048;4.686;2024-02-28T13:24:26;27.13;;;11.93;;
44139;SDS011;29803;51.048;4.686;2024-02-28T13:26:56;26.77;;;10.63;;
44139;SDS011;29803;51.048;4.686;2024-02-28T13:29:27;20.13;;;10.13;;
44139;SDS011;29803;51.048;4.686;2024-02-28T13:31:58;28.92;;;11.38;;
44139;SDS011;29803;51.048;4.686;2024-02-28T13:34:29;24.25;;;10.93;;
44139;SDS011;29803;51.048;4.686;2024-02-28T13:36:59;19.33;;;10.15;;
44139;SDS011;29803;51.048;4.686;2024-02-28T13:39:30;24.92;;;10.35;;
44139;SDS011;29803;51.048;4.686;2024-02-28T13:42:00;22.83;;;9.20;;
44139;SDS011;29803;51.048;4.686;2024-02-28T13:44:31;18.77;;;9.00;;
44139;SDS011;29803;51.048;4.686;2024-02-28T13:47:01;22.00;;;9.90;;
44139;SDS011;29803;51.048;4.686;2024-02-28T13:49:32;19.45;;;8.82;;
44139;SDS011;29803;51.048;4.686;2024-02-28T13:52:03;20.23;;;9.40;;
44139;SDS011;29803;51.048;4.686;2024-02-28T13:54:33;19.77;;;7.90;;
44139;SDS011;29803;51.048;4.686;2024-02-28T13:57:06;18.23;;;7.65;;
44139;SDS011;29803;51.048;4.686;2024-02-28T13:59:36;14.60;;;8.00;;
44139;SDS011;29803;51.048;4.686;2024-02-28T14:02:07;13.43;;;6.35;;
44139;SDS011;29803;51.048;4.686;2024-02-28T14:04:39;15.52;;;6.95;;
44139;SDS011;29803;51.048;4.686;2024-02-28T14:07:11;21.90;;;7.03;;
44139;SDS011;29803;51.048;4.686;2024-02-28T14:09:42;22.10;;;7.05;;
44139;SDS011;29803;51.048;4.686;2024-02-28T14:12:14;14.68;;;7.03;;
44139;SDS011;29803;51.048;4.686;2024-02-28T14:14:45;14.27;;;6.18;;
44139;SDS011;29803;51.048;4.686;2024-02-28T14:17:15;16.73;;;6.10;;
44139;SDS011;29803;51.048;4.686;2024-02-28T14:19:46;14.45;;;6.40;;
44139;SDS011;29803;51.048;4.686;2024-02-28T14:22:18;13.45;;;5.80;;
44139;SDS011;29803;51.048;4.686;2024-02-28T14:24:48;11.65;;;5.40;;
44139;SDS011;29803;51.048;4.686;2024-02-28T14:27:19;13.30;;;6.18;;
44139;SDS011;29803;51.048;4.686;2024-02-28T14:29:49;11.05;;;5.93;;
44139;SDS011;29803;51.048;4.686;2024-02-28T14:32:20;10.85;;;4.70;;
44139;SDS011;29803;51.048;4.686;2024-02-28T14:34:50;8.60;;;4.00;;
44139;SDS011;29803;51.048;4.686;2024-02-28T14:37:21;11.32;;;4.78;;
44139;SDS011;29803;51.048;4.686;2024-02-28T14:39:51;10.65;;;4.07;;
44139;SDS011;29803;51.048;4.686;2024-02-28T14:42:22;11.65;;;5.00;;
44139;SDS011;29803;51.048;4.686;2024-02-28T14:44:53;8.13;;;4.03;;